Terminal Aerodrome Forecast
Issued by NWS Chicago, IL

Home | Current Version | Previous Version | Text Only | Print | Product List | Glossary Off
Versions: 1 2 3 4 5 6 7 8 9 10 11 12 13 14 15 16 17 18 19 20 21 22 23 24 25 26 27 28 29 30 31 32 33

000
FTUS43 KLOT 121700
TAFRFD
TAF
KRFD 121740Z 1218/1318 19010G20KT 6SM BR BKN013 BKN120
     FM122000 19012G18KT P6SM SCT020 BKN120
     FM130000 22010G16KT P6SM VCTS BKN040CB
     FM130100 26010KT 3SM TSRA SCT015 OVC035CB
     FM130500 31005KT P6SM SCT020 OVC040=

USA.gov is the U.S. government's official web portal to all federal, state and local government web resources and services.